createdAt,value
2022-10-01T00:00:00.924Z,984.774
2022-10-01T00:01:01.073Z,984.6949
2022-10-01T00:02:01.298Z,984.63
2022-10-01T00:03:00.399Z,984.5731
2022-10-01T00:04:00.533Z,984.5882
2022-10-01T00:05:00.656Z,984.6869
2022-10-01T00:06:00.809Z,984.5526
2022-10-01T00:07:00.949Z,984.6664
2022-10-01T00:08:01.094Z,984.5242
2022-10-01T00:09:01.268Z,984.6664
2022-10-01T00:10:00.388Z,984.6668
2022-10-01T00:11:00.526Z,984.7233
2022-10-01T00:12:00.688Z,984.561
2022-10-01T00:13:00.820Z,984.7099
2022-10-01T00:14:00.999Z,984.5393
2022-10-01T00:15:05.756Z,984.5962
2022-10-01T00:16:00.270Z,984.6179
2022-10-01T00:17:00.577Z,984.6765
2022-10-01T00:18:00.563Z,984.6632
2022-10-01T00:19:00.726Z,984.7954
2022-10-01T00:20:00.850Z,984.6724
2022-10-01T00:21:01.016Z,984.6009
2022-10-01T00:22:01.185Z,984.5858
2022-10-01T00:23:00.316Z,984.6644
2022-10-01T00:24:00.464Z,984.636
2022-10-01T00:25:00.621Z,984.7431
2022-10-01T00:26:00.775Z,984.7377
2022-10-01T00:27:00.936Z,984.6754
2022-10-01T00:28:01.103Z,984.9648
2022-10-01T00:29:01.210Z,984.6838
2022-10-01T00:30:00.368Z,984.6136
2022-10-01T00:31:00.534Z,984.8946
2022-10-01T00:32:00.739Z,984.6203
2022-10-01T00:33:00.838Z,984.6771
2022-10-01T00:34:00.967Z,984.6203
2022-10-01T00:35:01.111Z,984.6771
2022-10-01T00:36:00.260Z,984.7821
2022-10-01T00:37:00.400Z,984.6237
2022-10-01T00:38:00.607Z,984.5886
2022-10-01T00:39:00.969Z,984.7591
2022-10-01T00:40:00.845Z,984.7085
2022-10-01T00:41:00.982Z,984.5886
2022-10-01T00:42:01.121Z,984.5397
2022-10-01T00:43:00.301Z,984.4411
2022-10-01T00:44:00.427Z,984.5916
2022-10-01T00:45:00.569Z,984.4859
2022-10-01T00:46:00.745Z,984.4158
2022-10-01T00:47:00.865Z,984.4526
2022-10-01T00:48:01.034Z,984.4605
2022-10-01T00:49:01.167Z,984.4605
2022-10-01T00:50:00.317Z,984.4188
2022-10-01T00:51:00.460Z,984.5103
2022-10-01T00:52:00.615Z,984.3833
2022-10-01T00:53:00.805Z,984.5174
2022-10-01T00:54:00.902Z,984.4605
2022-10-01T00:55:01.048Z,984.4752
2022-10-01T00:56:01.184Z,984.4534
2022-10-01T00:57:00.339Z,984.5729
2022-10-01T00:58:00.502Z,984.4793
2022-10-01T00:59:00.620Z,984.4508
2022-10-01T01:00:00.770Z,984.4375
2022-10-01T01:01:00.989Z,984.4242
2022-10-01T01:02:01.105Z,984.5645
2022-10-01T01:03:01.232Z,984.4442
2022-10-01T01:04:00.348Z,984.4158
2022-10-01T01:05:00.506Z,984.4158
2022-10-01T01:06:00.649Z,984.4859
2022-10-01T01:07:00.803Z,984.4508
2022-10-01T01:08:00.968Z,984.4007
2022-10-01T01:09:01.096Z,984.4074
2022-10-01T01:10:01.247Z,984.371
2022-10-01T01:11:00.397Z,984.434
2022-10-01T01:12:00.534Z,984.434
2022-10-01T01:13:00.715Z,984.4411
2022-10-01T01:14:00.852Z,984.4411
2022-10-01T01:15:00.997Z,984.4762
2022-10-01T01:16:01.222Z,984.3475
2022-10-01T01:17:00.295Z,984.2555
2022-10-01T01:18:00.471Z,984.5113
2022-10-01T01:19:00.589Z,984.5113
2022-10-01T01:20:00.736Z,984.3359
2022-10-01T01:21:00.868Z,984.3807
2022-10-01T01:22:01.015Z,984.3088
2022-10-01T01:23:01.193Z,984.4508
2022-10-01T01:24:00.300Z,984.2586
2022-10-01T01:25:00.455Z,984.2657
2022-10-01T01:26:00.603Z,984.2937
2022-10-01T01:27:00.733Z,984.3359
2022-10-01T01:28:00.920Z,984.371
2022-10-01T01:29:01.035Z,984.2422
2022-10-01T01:30:01.187Z,984.5113
2022-10-01T01:31:00.367Z,984.2622
2022-10-01T01:32:00.490Z,984.1054
2022-10-01T01:33:00.673Z,984.1179
2022-10-01T01:34:00.796Z,984.2236
2022-10-01T01:35:00.951Z,984.117
2022-10-01T01:36:01.100Z,984.0815
2022-10-01T01:37:01.240Z,984.3293
2022-10-01T01:38:00.395Z,984.1721
2022-10-01T01:39:00.531Z,984.0437
2022-10-01T01:40:00.683Z,984.0437
2022-10-01T01:41:00.832Z,984.1352
2022-10-01T01:42:00.968Z,984.2258
2022-10-01T01:43:01.143Z,984.169
2022-10-01T01:44:00.263Z,984.2107
2022-10-01T01:45:00.405Z,984.1472
2022-10-01T01:46:00.616Z,984.189
2022-10-01T01:47:00.708Z,984.2174
2022-10-01T01:48:00.890Z,984.1241
2022-10-01T01:49:01.002Z,984.0526
2022-10-01T01:50:01.152Z,984.1512
2022-10-01T01:51:00.301Z,984.0223
2022-10-01T01:52:00.445Z,984.0792
2022-10-01T01:53:00.610Z,983.9655
2022-10-01T01:54:00.744Z,983.9655
2022-10-01T01:55:00.887Z,984.0223
2022-10-01T01:56:01.030Z,983.8801
2022-10-01T01:57:01.190Z,984.0006
2022-10-01T01:58:00.346Z,983.9655
2022-10-01T01:59:00.471Z,983.8801
2022-10-01T02:00:00.616Z,983.9655
2022-10-01T02:01:00.760Z,984.1228
2022-10-01T02:02:01.074Z,983.8952
2022-10-01T02:03:01.243Z,983.9237
2022-10-01T02:04:01.206Z,983.7682
2022-10-01T02:05:00.365Z,983.9739
2022-10-01T02:06:00.506Z,983.8535
2022-10-01T02:07:00.651Z,983.9806
2022-10-01T02:08:00.836Z,984.0375
2022-10-01T02:09:00.959Z,983.8801
2022-10-01T02:10:01.104Z,983.8868
2022-10-01T02:11:01.254Z,983.9068
2022-10-01T02:12:00.402Z,983.8934
2022-10-01T02:13:00.559Z,984.0357
2022-10-01T02:14:00.731Z,983.929
2022-10-01T02:15:00.840Z,983.929
2022-10-01T02:16:01.040Z,983.9006
2022-10-01T02:17:01.133Z,984.0841
2022-10-01T02:18:00.265Z,983.9134
2022-10-01T02:19:00.441Z,983.9836
2022-10-01T02:20:00.585Z,983.6982
2022-10-01T02:21:00.733Z,983.9667
2022-10-01T02:22:00.882Z,983.9223
2022-10-01T02:23:01.031Z,983.7279
2022-10-01T02:24:01.200Z,983.8973
2022-10-01T02:25:00.324Z,983.7332
2022-10-01T02:26:00.470Z,983.8319
2022-10-01T02:27:00.609Z,983.6744
2022-10-01T02:28:00.780Z,983.7941
2022-10-01T02:29:00.941Z,983.8643
2022-10-01T02:30:01.051Z,983.8425
2022-10-01T02:31:01.313Z,983.742
2022-10-01T02:32:00.353Z,983.6983
2022-10-01T02:33:00.495Z,983.8825
2022-10-01T02:34:00.666Z,983.745
2022-10-01T02:35:00.795Z,983.8072
2022-10-01T02:36:00.952Z,983.8424
2022-10-01T02:37:01.097Z,983.7503
2022-10-01T02:38:01.249Z,983.8994
2022-10-01T02:39:00.402Z,983.8277
2022-10-01T02:40:00.564Z,983.9332
2022-10-01T02:41:00.679Z,983.9332
2022-10-01T02:42:00.836Z,983.6483
2022-10-01T02:43:00.978Z,983.6265
2022-10-01T02:44:01.130Z,983.8815
2022-10-01T02:45:00.279Z,984.081
2022-10-01T02:46:00.489Z,983.7391
2022-10-01T02:47:00.567Z,983.6669
2022-10-01T02:48:00.724Z,983.6028
2022-10-01T02:49:00.862Z,983.7239
2022-10-01T02:50:01.019Z,983.6028
2022-10-01T02:51:01.174Z,983.5681
2022-10-01T02:52:00.306Z,983.5966
2022-10-01T02:53:00.453Z,983.5396
2022-10-01T02:54:00.597Z,983.5881
2022-10-01T02:55:00.751Z,983.6433
2022-10-01T02:56:00.913Z,983.5431
2022-10-01T02:57:01.064Z,983.5635
2022-10-01T02:58:01.190Z,983.4909
2022-10-01T02:59:00.347Z,983.5973
2022-10-01T03:00:00.487Z,983.4743
2022-10-01T03:01:00.629Z,983.6587
2022-10-01T03:02:00.934Z,983.558
2022-10-01T03:03:01.022Z,983.6635
2022-10-01T03:04:01.081Z,983.6065
2022-10-01T03:05:01.225Z,983.6065
2022-10-01T03:06:00.363Z,983.5276
2022-10-01T03:07:00.531Z,983.4559
2022-10-01T03:08:00.667Z,983.5409
2022-10-01T03:09:00.816Z,983.5191
2022-10-01T03:10:00.962Z,983.5182
2022-10-01T03:11:01.119Z,983.5163
2022-10-01T03:12:00.275Z,983.5163
2022-10-01T03:13:00.417Z,983.5448
2022-10-01T03:14:00.550Z,983.5163
2022-10-01T03:15:00.701Z,983.5163
2022-10-01T03:16:00.908Z,983.5586
2022-10-01T03:17:01.018Z,983.5586
2022-10-01T03:18:01.141Z,983.5867
2022-10-01T03:19:00.285Z,983.629
2022-10-01T03:20:00.452Z,983.3585
2022-10-01T03:21:00.584Z,983.3871
2022-10-01T03:22:00.779Z,983.3585
2022-10-01T03:23:00.875Z,983.629
2022-10-01T03:24:01.029Z,983.4646
2022-10-01T03:25:01.169Z,983.4008
2022-10-01T03:26:00.321Z,983.5283
2022-10-01T03:27:00.478Z,983.4712
2022-10-01T03:28:00.670Z,983.5064
2022-10-01T03:29:00.749Z,983.4641
2022-10-01T03:30:00.904Z,983.3638
2022-10-01T03:31:01.090Z,983.4712
2022-10-01T03:32:01.207Z,983.3167
2022-10-01T03:33:00.359Z,983.3167
2022-10-01T03:34:00.528Z,983.3571
2022-10-01T03:35:00.636Z,983.3771
2022-10-01T03:36:00.800Z,983.3367
2022-10-01T03:37:00.940Z,983.4057
2022-10-01T03:38:01.084Z,983.2445
2022-10-01T03:39:01.266Z,983.322
2022-10-01T03:40:00.373Z,983.3367
2022-10-01T03:41:00.505Z,983.3586
2022-10-01T03:42:00.660Z,983.3638
2022-10-01T03:43:00.798Z,983.216
2022-10-01T03:44:00.977Z,983.3015
2022-10-01T03:45:01.097Z,983.2649
2022-10-01T03:46:01.326Z,983.2845
2022-10-01T03:47:00.388Z,983.226
2022-10-01T03:48:00.531Z,983.2179
2022-10-01T03:49:00.694Z,983.3169
2022-10-01T03:50:00.833Z,983.2512
2022-10-01T03:51:01.008Z,983.2294
2022-10-01T03:52:01.124Z,983.3216
2022-10-01T03:53:00.257Z,983.2864
2022-10-01T03:54:00.415Z,983.2075
2022-10-01T03:55:00.566Z,983.1642
2022-10-01T03:56:00.731Z,983.1989
2022-10-01T03:57:00.865Z,983.2413
2022-10-01T03:58:01.036Z,983.1404
2022-10-01T03:59:01.152Z,983.1609
2022-10-01T04:00:00.303Z,983.1609
2022-10-01T04:01:00.466Z,983.1609
2022-10-01T04:02:00.691Z,983.1038
2022-10-01T04:03:00.853Z,983.0467
2022-10-01T04:04:00.902Z,983.1609
2022-10-01T04:05:01.051Z,983.0833
2022-10-01T04:06:01.233Z,983.2765
2022-10-01T04:07:00.341Z,982.9977
2022-10-01T04:08:00.492Z,983.2465
2022-10-01T04:09:00.652Z,983.1038
2022-10-01T04:10:00.787Z,983.0467
2022-10-01T04:11:00.989Z,982.9896
2022-10-01T04:12:01.079Z,983.1038
2022-10-01T04:13:01.226Z,983.0181
2022-10-01T04:14:00.365Z,983.0467
2022-10-01T04:15:00.514Z,983.0029
2022-10-01T04:16:00.760Z,983.1523
2022-10-01T04:17:00.818Z,983.0181
2022-10-01T04:18:00.958Z,982.9677
2022-10-01T04:19:01.123Z,983.0453
2022-10-01T04:20:00.286Z,983.0805
2022-10-01T04:21:00.442Z,983.0733
2022-10-01T04:22:00.559Z,983.1509
2022-10-01T04:23:00.708Z,983.179
2022-10-01T04:24:00.863Z,982.951
2022-10-01T04:25:01.012Z,982.8939
2022-10-01T04:26:01.187Z,982.9506
2022-10-01T04:27:00.304Z,983
2022-10-01T04:28:00.472Z,982.9144
2022-10-01T04:29:00.596Z,982.8002
2022-10-01T04:30:00.732Z,982.9777
2022-10-01T04:31:00.908Z,982.7231
2022-10-01T04:32:01.042Z,982.7516
2022-10-01T04:33:01.154Z,982.7231
2022-10-01T04:34:00.288Z,982.8415
2022-10-01T04:35:00.440Z,982.7916
2022-10-01T04:36:00.605Z,982.7497
2022-10-01T04:37:00.757Z,982.664
2022-10-01T04:38:00.892Z,982.743
2022-10-01T04:39:02.711Z,982.6707
2022-10-01T04:40:01.184Z,982.5564
2022-10-01T04:41:00.339Z,982.5564
2022-10-01T04:42:00.496Z,982.6135
2022-10-01T04:43:00.640Z,982.6421
2022-10-01T04:44:00.836Z,982.6197
2022-10-01T04:45:00.922Z,982.7892
2022-10-01T04:46:01.069Z,982.7054
2022-10-01T04:47:01.309Z,982.5626
2022-10-01T04:48:00.386Z,982.5911
2022-10-01T04:49:00.514Z,982.6549
2022-10-01T04:50:00.670Z,982.5978
2022-10-01T04:51:00.829Z,982.5692
2022-10-01T04:52:00.965Z,982.5759
2022-10-01T04:53:01.135Z,982.6707
2022-10-01T04:54:00.267Z,982.6421
2022-10-01T04:55:00.458Z,982.6483
2022-10-01T04:56:00.565Z,982.712
2022-10-01T04:57:00.710Z,982.6549
2022-10-01T04:58:00.879Z,982.5978
2022-10-01T04:59:01.006Z,982.7406
2022-10-01T05:00:01.149Z,982.7253
2022-10-01T05:01:02.329Z,982.7253
2022-10-01T05:02:00.508Z,982.6044
2022-10-01T05:03:00.624Z,982.7892
2022-10-01T05:04:00.760Z,982.6197
2022-10-01T05:05:00.909Z,982.6197
2022-10-01T05:06:01.045Z,982.8111
2022-10-01T05:07:01.215Z,982.6421
2022-10-01T05:08:00.387Z,982.8049
2022-10-01T05:09:00.512Z,982.6069
2022-10-01T05:10:00.639Z,982.8334
2022-10-01T05:11:00.790Z,982.7497
2022-10-01T05:12:00.936Z,982.813
2022-10-01T05:13:01.112Z,982.8487
2022-10-01T05:14:01.237Z,982.8063
2022-10-01T05:15:00.377Z,982.7231
2022-10-01T05:16:00.690Z,982.7093
2022-10-01T05:17:00.673Z,982.8649
2022-10-01T05:18:00.850Z,982.8939
2022-10-01T05:19:00.968Z,982.8164
2022-10-01T05:20:01.119Z,982.8031
2022-10-01T05:21:00.261Z,982.7479
2022-10-01T05:22:00.415Z,982.9325
2022-10-01T05:23:00.569Z,982.9325
2022-10-01T05:24:00.739Z,982.855
2022-10-01T05:25:00.859Z,982.8198
2022-10-01T05:26:01.006Z,982.8416
2022-10-01T05:27:01.151Z,982.9625
2022-10-01T05:28:00.379Z,982.8854
2022-10-01T05:29:00.439Z,982.9073
2022-10-01T05:30:00.636Z,982.8502
2022-10-01T05:31:00.916Z,982.9073
2022-10-01T05:32:00.947Z,982.8502
2022-10-01T05:33:01.057Z,982.9002
2022-10-01T05:34:01.190Z,983.0215
2022-10-01T05:35:00.342Z,982.8298
2022-10-01T05:36:00.481Z,982.9725
2022-10-01T05:37:00.625Z,982.8869
2022-10-01T05:38:00.783Z,982.7394
2022-10-01T05:39:00.918Z,982.6956
2022-10-01T05:40:01.078Z,982.8869
2022-10-01T05:41:01.219Z,982.7879
2022-10-01T05:42:05.397Z,982.8736
2022-10-01T05:43:00.513Z,982.7394
2022-10-01T05:44:00.656Z,982.9525
2022-10-01T05:45:00.810Z,982.748
2022-10-01T05:46:00.973Z,982.6134
2022-10-01T05:47:01.089Z,982.7494
2022-10-01T05:48:01.239Z,982.7509
2022-10-01T05:49:00.392Z,982.8484
2022-10-01T05:50:00.565Z,982.7428
2022-10-01T05:51:00.759Z,982.7494
2022-10-01T05:52:00.870Z,982.6068
2022-10-01T05:53:00.977Z,982.847
2022-10-01T05:54:01.138Z,982.7261
2022-10-01T05:55:00.284Z,982.7328
2022-10-01T05:56:00.432Z,982.6737
2022-10-01T05:57:00.601Z,982.6452
2022-10-01T05:58:00.768Z,982.659
2022-10-01T05:59:00.885Z,982.7846
2022-10-01T06:00:01.037Z,982.578
2022-10-01T06:01:01.179Z,982.5209
2022-10-01T06:02:00.472Z,982.4068
2022-10-01T06:03:00.619Z,982.6556
2022-10-01T06:04:00.620Z,982.4557
2022-10-01T06:05:00.786Z,982.4272
2022-10-01T06:06:00.943Z,982.5261
2022-10-01T06:07:01.086Z,982.3329
2022-10-01T06:08:01.245Z,982.4451
2022-10-01T06:09:00.359Z,982.2662
2022-10-01T06:10:00.492Z,982.328
2022-10-01T06:11:00.634Z,982.4244
2022-10-01T06:12:00.781Z,982.4082
2022-10-01T06:13:00.944Z,982.2634
2022-10-01T06:14:01.082Z,982.3456
2022-10-01T06:15:01.224Z,982.2864
2022-10-01T06:16:00.520Z,982.3059
2022-10-01T06:17:00.517Z,982.1324
2022-10-01T06:18:00.658Z,982.258
2022-10-01T06:19:00.805Z,982.2979
2022-10-01T06:20:00.959Z,982.2306
2022-10-01T06:21:01.110Z,982.2357
2022-10-01T06:22:01.254Z,982.1837
2022-10-01T06:23:00.420Z,982.1464
2022-10-01T06:24:00.555Z,982.1444
2022-10-01T06:25:00.708Z,982.3279
2022-10-01T06:26:00.919Z,982.077
2022-10-01T06:27:01.004Z,982.1961
2022-10-01T06:28:01.253Z,982.0939
2022-10-01T06:29:00.290Z,982.235
2022-10-01T06:30:00.447Z,982.0699
2022-10-01T06:31:00.598Z,982.1758
2022-10-01T06:32:00.815Z,982.0326
2022-10-01T06:33:00.904Z,982.1543
2022-10-01T06:34:01.029Z,982.1032
2022-10-01T06:35:01.175Z,982.1957
2022-10-01T06:36:00.326Z,982.0163
2022-10-01T06:37:00.475Z,982.1881
2022-10-01T06:38:00.638Z,982.1022
2022-10-01T06:39:00.771Z,982.0515
2022-10-01T06:40:01.027Z,981.9876
2022-10-01T06:41:01.079Z,982.0362
2022-10-01T06:42:01.215Z,982.1359
2022-10-01T06:43:00.391Z,982.0567
2022-10-01T06:44:00.502Z,982.028
2022-10-01T06:45:00.638Z,981.9268
2022-10-01T06:46:00.858Z,981.9109
2022-10-01T06:47:00.944Z,982.0961
2022-10-01T06:48:01.097Z,981.8583
2022-10-01T06:49:01.236Z,981.9427
2022-10-01T06:50:00.410Z,982.0486
2022-10-01T06:51:00.531Z,982.0982
2022-10-01T06:52:00.672Z,981.9263
2022-10-01T06:53:00.816Z,982.0102
2022-10-01T06:54:00.959Z,981.759
2022-10-01T06:55:01.192Z,981.8434
2022-10-01T06:56:00.255Z,981.9007
2022-10-01T06:57:00.411Z,981.6996
2022-10-01T06:58:00.549Z,981.7421
2022-10-01T06:59:00.702Z,981.698
2022-10-01T07:00:00.874Z,981.7113
2022-10-01T07:01:01.012Z,981.7891
2022-10-01T07:02:01.217Z,981.7318
2022-10-01T07:03:00.284Z,981.8173
2022-10-01T07:04:00.435Z,981.7026
2022-10-01T07:05:00.623Z,981.7226
2022-10-01T07:06:00.744Z,981.8004
2022-10-01T07:07:00.887Z,981.6432
2022-10-01T07:08:01.034Z,981.849
2022-10-01T07:09:01.173Z,981.6836
2022-10-01T07:10:00.349Z,981.655
2022-10-01T07:11:00.496Z,981.7415
2022-10-01T07:12:00.625Z,981.677
2022-10-01T07:13:00.775Z,981.7697
2022-10-01T07:14:00.917Z,981.7328
2022-10-01T07:15:01.161Z,981.761
2022-10-01T07:16:01.329Z,981.5415
2022-10-01T07:17:00.377Z,981.6094
2022-10-01T07:18:00.513Z,981.5333
2022-10-01T07:19:00.670Z,981.7241
2022-10-01T07:20:00.826Z,981.5586
2022-10-01T07:21:00.988Z,981.5725
2022-10-01T07:22:01.129Z,981.5719
2022-10-01T07:23:00.267Z,981.5384
2022-10-01T07:24:00.423Z,981.6145
2022-10-01T07:25:00.566Z,981.4959
2022-10-01T07:26:00.749Z,981.6145
2022-10-01T07:27:06.521Z,981.6211
2022-10-01T07:28:01.050Z,981.7778
2022-10-01T07:29:01.165Z,981.7758
2022-10-01T07:30:00.318Z,981.7758
2022-10-01T07:31:00.469Z,981.5276
2022-10-01T07:32:00.626Z,981.6241
2022-10-01T07:33:00.748Z,981.5954
2022-10-01T07:34:00.911Z,981.5111
2022-10-01T07:35:01.050Z,981.6072
2022-10-01T07:36:01.223Z,981.5244
2022-10-01T07:37:00.339Z,981.6425
2022-10-01T07:38:00.485Z,981.5444
2022-10-01T07:39:00.634Z,981.7332
2022-10-01T07:40:05.274Z,981.6825
2022-10-01T07:41:00.959Z,981.5336
2022-10-01T07:42:01.088Z,981.4188
2022-10-01T07:43:01.234Z,981.4762
2022-10-01T07:44:00.371Z,981.5336
2022-10-01T07:45:00.527Z,981.4828
2022-10-01T07:46:00.727Z,981.5661
2022-10-01T07:47:00.828Z,981.4392
2022-10-01T07:48:00.986Z,981.3967
2022-10-01T07:49:01.131Z,981.4039
2022-10-01T07:50:00.270Z,981.3752
2022-10-01T07:51:00.424Z,981.3244
2022-10-01T07:52:00.584Z,981.3593
2022-10-01T07:53:00.705Z,981.4592
2022-10-01T07:54:00.825Z,981.3577
2022-10-01T07:55:00.986Z,981.3781
2022-10-01T07:56:01.124Z,981.3915
2022-10-01T07:57:00.287Z,981.2766
2022-10-01T07:58:00.426Z,981.2838
2022-10-01T07:59:00.585Z,981.3899
2022-10-01T08:00:00.727Z,981.434
2022-10-01T08:01:00.921Z,981.3986
2022-10-01T08:02:01.158Z,981.4694
2022-10-01T08:03:01.175Z,981.3191
2022-10-01T08:04:00.333Z,981.2617
2022-10-01T08:05:00.477Z,981.4694
2022-10-01T08:06:00.623Z,981.2043
2022-10-01T08:07:00.783Z,981.3986
2022-10-01T08:08:00.922Z,981.3545
2022-10-01T08:09:01.089Z,981.2551
2022-10-01T08:10:01.214Z,981.2684
2022-10-01T08:11:00.360Z,981.2684
2022-10-01T08:12:00.494Z,981.2043
2022-10-01T08:13:00.648Z,981.4694
2022-10-01T08:14:00.815Z,981.3883
2022-10-01T08:15:00.954Z,981.216
2022-10-01T08:16:01.092Z,981.1939
2022-10-01T08:17:01.289Z,981.258
2022-10-01T08:18:00.387Z,981.2647
2022-10-01T08:19:00.558Z,981.3795
2022-10-01T08:20:00.680Z,981.3354
2022-10-01T08:21:00.825Z,981.0703
2022-10-01T08:22:00.981Z,981.3
2022-10-01T08:23:01.134Z,981.3354
2022-10-01T08:24:00.304Z,981.0753
2022-10-01T08:25:00.421Z,981.1897
2022-10-01T08:26:00.581Z,981.2764
2022-10-01T08:27:00.724Z,981.1461
2022-10-01T08:28:00.920Z,981.1875
2022-10-01T08:29:01.049Z,981.0947
2022-10-01T08:30:01.180Z,981.1588
2022-10-01T08:31:00.321Z,981.2008
2022-10-01T08:32:00.532Z,980.9412
2022-10-01T08:33:00.606Z,981.0407
2022-10-01T08:34:00.779Z,980.9987
2022-10-01T08:35:00.939Z,980.9119
2022-10-01T08:36:01.059Z,981.0473
2022-10-01T08:37:01.221Z,980.9324
2022-10-01T08:38:00.359Z,980.9678
2022-10-01T08:39:00.521Z,980.917
2022-10-01T08:40:00.692Z,980.8241
2022-10-01T08:41:00.826Z,980.838
2022-10-01T08:42:00.967Z,980.9728
2022-10-01T08:43:01.109Z,980.9728
2022-10-01T08:44:01.259Z,980.7562
2022-10-01T08:45:00.409Z,980.9065
2022-10-01T08:46:00.600Z,980.8695
2022-10-01T08:47:00.679Z,980.6308
2022-10-01T08:48:00.824Z,980.6153
2022-10-01T08:49:00.975Z,980.6219
2022-10-01T08:50:01.158Z,980.7635
2022-10-01T08:51:00.273Z,980.3439
2022-10-01T08:52:00.409Z,980.3864
2022-10-01T08:53:00.566Z,980.3289
2022-10-01T08:54:00.705Z,980.3997
2022-10-01T08:55:00.886Z,980.3134
2022-10-01T08:56:01.000Z,980.2559
2022-10-01T08:57:01.147Z,980.3422
2022-10-01T08:58:00.308Z,980.3554
2022-10-01T08:59:00.450Z,980.4926
2022-10-01T09:00:00.601Z,980.4063
2022-10-01T09:01:00.845Z,980.413
2022-10-01T09:02:00.874Z,980.4992
2022-10-01T09:03:01.014Z,980.4705
2022-10-01T09:04:01.187Z,980.5501
2022-10-01T09:05:01.953Z,980.4345
2022-10-01T09:06:00.484Z,980.4351
2022-10-01T09:07:00.611Z,980.5634
2022-10-01T09:08:00.770Z,980.4484
2022-10-01T09:09:00.912Z,980.4484
2022-10-01T09:10:01.067Z,980.5059
2022-10-01T09:11:01.210Z,980.4196
2022-10-01T09:12:00.345Z,980.4484
2022-10-01T09:13:00.507Z,980.6076
2022-10-01T09:14:00.643Z,980.413
2022-10-01T09:15:00.801Z,980.377
2022-10-01T09:16:01.033Z,980.4926
2022-10-01T09:17:01.133Z,980.45
2022-10-01T09:18:01.253Z,980.4367
2022-10-01T09:19:00.403Z,980.424
2022-10-01T09:20:00.536Z,980.1608
2022-10-01T09:21:00.689Z,980.147
2022-10-01T09:22:00.863Z,980.246
2022-10-01T09:23:00.987Z,980.184
2022-10-01T09:24:01.138Z,980.2107
2022-10-01T09:25:00.290Z,980.2532
2022-10-01T09:26:00.444Z,980.309
2022-10-01T09:27:00.607Z,980.282
2022-10-01T09:28:00.830Z,980.2748
2022-10-01T09:29:00.892Z,980.2333
2022-10-01T09:30:01.036Z,980.2129
2022-10-01T09:31:01.174Z,980.1
2022-10-01T09:32:00.387Z,980.3345
2022-10-01T09:33:00.501Z,980.1575
2022-10-01T09:34:00.620Z,980.2925
2022-10-01T09:35:04.276Z,980.1708
2022-10-01T09:36:00.950Z,980.0779
2022-10-01T09:37:01.077Z,980.1
2022-10-01T09:38:01.254Z,980.0713
2022-10-01T09:39:00.371Z,979.921
2022-10-01T09:40:00.527Z,980.0359
2022-10-01T09:41:00.666Z,980.1222
2022-10-01T09:42:00.821Z,979.9514
2022-10-01T09:43:00.990Z,980.0089
2022-10-01T09:44:01.110Z,979.9735
2022-10-01T09:45:00.271Z,980.2964
2022-10-01T09:46:00.484Z,980.2964
2022-10-01T09:47:00.550Z,980.2539
2022-10-01T09:48:00.719Z,980.0327
2022-10-01T09:49:00.856Z,980.2539
2022-10-01T09:50:01.003Z,980.1278
2022-10-01T09:51:01.141Z,980.1278
2022-10-01T09:52:00.276Z,980.0924
2022-10-01T09:53:00.457Z,980.0924
2022-10-01T09:54:00.582Z,980.0013
2022-10-01T09:55:00.773Z,980.0737
2022-10-01T09:56:00.914Z,980.0096
2022-10-01T09:57:01.067Z,980.0881
2022-10-01T09:58:01.224Z,979.9461
2022-10-01T09:59:00.350Z,979.9898
2022-10-01T10:00:00.509Z,980.0119
2022-10-01T10:01:00.673Z,980.0782
2022-10-01T10:02:00.889Z,979.9794
2022-10-01T10:03:01.168Z,979.9656
2022-10-01T10:04:01.108Z,980.0075
2022-10-01T10:05:01.222Z,980.165
2022-10-01T10:06:00.374Z,980.0297
2022-10-01T10:07:00.523Z,980.096
2022-10-01T10:08:00.675Z,979.8751
2022-10-01T10:09:00.841Z,980.0253
2022-10-01T10:10:00.964Z,980.0761
2022-10-01T10:11:01.139Z,980.0187
2022-10-01T10:12:00.268Z,980.0761
2022-10-01T10:13:00.416Z,979.99
2022-10-01T10:14:00.574Z,980.1335
2022-10-01T10:15:00.700Z,980.0187
2022-10-01T10:16:00.940Z,979.9342
2022-10-01T10:17:01.001Z,980.1573
2022-10-01T10:18:01.149Z,980.0646
2022-10-01T10:19:00.295Z,979.9718
2022-10-01T10:20:00.453Z,980.0867
2022-10-01T10:21:00.579Z,980.0867
2022-10-01T10:22:00.731Z,980.0795
2022-10-01T10:23:00.889Z,980.0293
2022-10-01T10:24:01.052Z,979.9443
2022-10-01T10:25:01.206Z,980.0376
2022-10-01T10:26:00.320Z,980.0304
2022-10-01T10:27:00.459Z,979.9514
2022-10-01T10:28:00.671Z,980.0017
2022-10-01T10:29:00.766Z,980.2585
2022-10-01T10:30:00.915Z,980.1452
2022-10-01T10:31:01.106Z,979.9951
2022-10-01T10:32:01.193Z,979.8868
2022-10-01T10:33:00.356Z,980.0795
2022-10-01T10:34:00.477Z,980.1573
2022-10-01T10:35:03.060Z,980.0089
2022-10-01T10:36:00.780Z,979.9951
2022-10-01T10:37:00.952Z,979.8868
2022-10-01T10:38:01.092Z,980.0017
2022-10-01T10:39:01.223Z,980.0304
2022-10-01T10:40:00.351Z,980.2801
2022-10-01T10:41:00.500Z,980.0812
2022-10-01T10:42:00.650Z,980.0238
2022-10-01T10:43:00.810Z,980.0017
2022-10-01T10:44:00.956Z,980.0795
2022-10-01T10:45:01.099Z,980.0801
2022-10-01T10:46:01.271Z,979.9647
2022-10-01T10:47:00.380Z,980.1165
2022-10-01T10:48:00.541Z,980.0304
2022-10-01T10:49:00.711Z,979.9597
2022-10-01T10:50:00.826Z,979.9951
2022-10-01T10:51:00.992Z,979.9382
2022-10-01T10:52:01.139Z,980.1237
2022-10-01T10:53:00.270Z,979.9934
2022-10-01T10:54:00.461Z,980.1573
2022-10-01T10:55:00.599Z,979.921
2022-10-01T10:56:00.734Z,979.9144
2022-10-01T10:57:00.873Z,979.921
2022-10-01T10:58:04.524Z,979.9563
2022-10-01T10:59:01.178Z,979.9563
2022-10-01T11:00:00.308Z,980.1335
2022-10-01T11:01:00.504Z,979.9325
2022-10-01T11:02:00.722Z,979.9038
2022-10-01T11:03:00.753Z,979.8751
2022-10-01T11:04:00.942Z,980.0098
2022-10-01T11:05:01.094Z,979.8883
2022-10-01T11:06:01.225Z,980.0032
2022-10-01T11:07:00.373Z,979.8662
2022-10-01T11:08:00.519Z,979.8409
2022-10-01T11:09:00.691Z,979.9673
2022-10-01T11:10:00.815Z,979.9016
2022-10-01T11:11:00.971Z,979.8662
2022-10-01T11:12:01.116Z,979.9524
2022-10-01T11:13:00.267Z,979.9369
2022-10-01T11:14:00.423Z,979.9016
2022-10-01T11:15:00.553Z,979.8254
2022-10-01T11:16:00.757Z,979.9237
2022-10-01T11:17:00.843Z,979.8949
2022-10-01T11:18:00.999Z,979.9722
2022-10-01T11:19:01.162Z,979.9794
2022-10-01T11:20:00.284Z,980.0164
2022-10-01T11:21:00.429Z,979.8662
2022-10-01T11:22:00.578Z,980.0518
2022-10-01T11:23:00.720Z,979.8607
2022-10-01T11:24:00.885Z,979.9369
2022-10-01T11:25:01.114Z,979.9369
2022-10-01T11:26:01.178Z,979.959
2022-10-01T11:27:00.325Z,980.0518
2022-10-01T11:28:00.522Z,979.9656
2022-10-01T11:29:00.612Z,979.9722
2022-10-01T11:30:00.811Z,979.9303
2022-10-01T11:31:01.005Z,979.9369
2022-10-01T11:32:01.053Z,980.0164
2022-10-01T11:33:01.198Z,980.0164
2022-10-01T11:34:00.351Z,979.8662
2022-10-01T11:35:00.514Z,979.8662
2022-10-01T11:36:00.669Z,979.9458
2022-10-01T11:37:00.796Z,979.8751
2022-10-01T11:38:00.954Z,979.99
2022-10-01T11:39:01.099Z,980.1048
2022-10-01T11:40:01.249Z,980.0187
2022-10-01T11:41:00.425Z,979.9325
2022-10-01T11:42:00.532Z,979.9342
2022-10-01T11:43:00.689Z,979.8515
2022-10-01T11:44:00.837Z,979.8751
2022-10-01T11:45:01.083Z,979.8768
2022-10-01T11:46:01.223Z,979.9563